Time;durP1;ratioP1;P1;durP2;ratioP2;P2;SDS_P1;SDS_P2;PMS_P1;PMS_P2;Temp;Humidity;BMP_temperature;BMP_pressure;BME280_temperature;BME280_humidity;BME280_pressure;Samples;Min_cycle;Max_cycle;Signal;HPM_P1;HPM_P2
2022/11/10 00:02:06;;;;;;;19.83;6.30;;;9.30;99.90;;;;;;6342692;22;20065;-88
2022/11/10 00:04:34;;;;;;;19.48;6.57;;;10.20;99.90;;;;;;6337860;22;20038;-88
2022/11/10 00:07:11;;;;;;;22.15;5.85;;;10.00;99.90;;;;;;6339082;22;20019;-88
2022/11/10 00:09:40;;;;;;;16.65;6.05;;;10.70;99.90;;;;;;6310442;22;20016;-88
2022/11/10 00:12:09;;;;;;;17.38;6.20;;;11.00;99.90;;;;;;6338129;22;20022;-87
2022/11/10 00:17:25;;;;;;;19.40;6.63;;;8.80;99.90;;;;;;6310673;22;20023;-88
2022/11/10 00:19:53;;;;;;;19.90;6.23;;;9.90;99.90;;;;;;6309764;22;20015;-88
2022/11/10 00:22:22;;;;;;;21.10;6.22;;;10.20;99.90;;;;;;6311018;22;20018;-88
2022/11/10 00:24:56;;;;;;;19.90;6.60;;;9.20;99.90;;;;;;6339335;22;20041;-88
2022/11/10 00:27:22;;;;;;;19.70;6.60;;;10.60;99.90;;;;;;6338456;22;20022;-89
2022/11/10 00:30:00;;;;;;;20.20;6.57;;;9.30;99.90;;;;;;6311239;22;20355;-88
2022/11/10 00:32:52;;;;;;;22.02;6.68;;;9.30;99.90;;;;;;6335058;22;20022;-88
2022/11/10 00:35:18;;;;;;;19.38;7.18;;;10.40;99.90;;;;;;6338144;22;20333;-88
2022/11/10 00:37:55;;;;;;;21.37;6.33;;;10.10;99.90;;;;;;6339475;22;20015;-88
2022/11/10 00:40:23;;;;;;;17.40;6.53;;;8.80;99.90;;;;;;6282986;22;20450;-88
2022/11/10 00:42:51;;;;;;;17.37;6.40;;;8.40;99.90;;;;;;6311464;22;20015;-88
2022/11/10 00:45:17;;;;;;;17.77;6.23;;;10.00;99.90;;;;;;6338530;22;20019;-88
2022/11/10 00:47:55;;;;;;;19.93;7.17;;;9.80;99.90;;;;;;6338478;22;20017;-88
2022/11/10 00:50:23;;;;;;;23.17;7.00;;;8.10;99.90;;;;;;6310705;22;20033;-88
2022/11/10 00:52:55;;;;;;;21.88;7.10;;;8.50;99.90;;;;;;6339227;22;20014;-87
2022/11/10 00:55:20;;;;;;;22.33;7.20;;;8.00;99.90;;;;;;6309583;22;20014;-88
2022/11/10 00:57:48;;;;;;;18.13;6.72;;;8.80;99.90;;;;;;6311191;22;20386;-88
2022/11/10 01:00:14;;;;;;;24.17;7.18;;;9.70;99.90;;;;;;6339058;22;20090;-88
2022/11/10 01:02:43;;;;;;;20.65;7.00;;;8.60;99.90;;;;;;6309990;22;20053;-88
2022/11/10 01:05:20;;;;;;;19.77;6.93;;;8.70;99.90;;;;;;6338990;22;20019;-88
2022/11/10 01:07:46;;;;;;;20.92;6.75;;;8.20;99.90;;;;;;6339191;22;20092;-88
2022/11/10 01:10:18;;;;;;;20.95;6.78;;;8.20;99.90;;;;;;6310547;22;20376;-87
2022/11/10 01:12:43;;;;;;;21.23;6.72;;;9.50;99.90;;;;;;6315878;22;19999;-87
2022/11/10 01:15:11;;;;;;;24.60;6.38;;;7.70;99.90;;;;;;6339368;22;20015;-87
2022/11/10 01:17:40;;;;;;;24.45;7.03;;;8.90;99.90;;;;;;6310984;22;20019;-88
2022/11/10 01:20:11;;;;;;;20.80;7.17;;;8.40;99.90;;;;;;6313157;22;20388;-88
2022/11/10 01:22:49;;;;;;;21.13;6.67;;;7.70;99.90;;;;;;6343779;22;20469;-88
2022/11/10 01:25:26;;;;;;;22.05;7.35;;;10.20;99.90;;;;;;6338711;22;20025;-88
2022/11/10 01:27:58;;;;;;;20.17;6.50;;;8.80;99.90;;;;;;6310991;22;20022;-88
2022/11/10 01:31:19;;;;;;;20.67;6.85;;;7.60;99.90;;;;;;6278845;22;20015;-88
2022/11/10 01:33:57;;;;;;;19.58;6.70;;;7.90;99.90;;;;;;6339525;22;20022;-88
2022/11/10 01:37:12;;;;;;;17.88;6.57;;;9.90;99.90;;;;;;6338765;22;20019;-88
2022/11/10 01:39:47;;;;;;;;;;;8.30;99.90;;;;;;6313176;22;20449;-88
2022/11/10 01:42:41;;;;;;;24.97;7.17;;;9.00;99.90;;;;;;6338973;22;20326;-88
2022/11/10 01:45:48;;;;;;;24.97;7.03;;;8.80;99.90;;;;;;6337595;22;20054;-88
2022/11/10 01:48:49;;;;;;;23.27;6.57;;;9.50;99.90;;;;;;6310738;22;20472;-88
2022/11/10 01:51:42;;;;;;;27.97;7.70;;;8.70;99.90;;;;;;6287297;22;20015;-88
2022/11/10 01:54:17;;;;;;;25.05;6.90;;;8.70;99.90;;;;;;6338696;22;20011;-88
2022/11/10 01:57:09;;;;;;;25.02;8.63;;;8.50;99.90;;;;;;6339096;22;20025;-88
2022/11/10 01:59:50;;;;;;;23.58;7.78;;;10.00;99.90;;;;;;6312389;22;20449;-88
2022/11/10 02:02:51;;;;;;;24.92;7.63;;;9.80;99.90;;;;;;6340229;22;20061;-88
2022/11/10 02:05:18;;;;;;;21.27;6.63;;;7.70;99.90;;;;;;6289120;22;20010;-88
2022/11/10 02:07:47;;;;;;;18.03;7.07;;;8.60;99.90;;;;;;6312936;22;20106;-88
2022/11/10 02:10:18;;;;;;;21.65;6.95;;;9.80;99.90;;;;;;6340454;22;20019;-88
2022/11/10 02:12:44;;;;;;;21.20;7.47;;;10.00;99.90;;;;;;6339278;22;20038;-88
2022/11/10 02:15:14;;;;;;;25.67;7.07;;;8.10;99.90;;;;;;6312927;22;20022;-88
2022/11/10 02:17:50;;;;;;;26.55;7.28;;;9.50;99.90;;;;;;6340668;22;20086;-88
2022/11/10 02:20:23;;;;;;;26.00;7.72;;;9.90;99.90;;;;;;6337328;22;20094;-88
2022/11/10 02:22:51;;;;;;;24.53;6.97;;;8.60;99.90;;;;;;6313224;22;20093;-88
2022/11/10 02:25:20;;;;;;;21.38;6.78;;;9.50;99.90;;;;;;6340805;22;20022;-88
2022/11/10 02:27:48;;;;;;;24.33;7.27;;;8.00;99.90;;;;;;6311548;22;20019;-88
2022/11/10 02:30:37;;;;;;;24.50;6.88;;;9.40;99.90;;;;;;6312186;22;20081;-88
2022/11/10 02:33:03;;;;;;;22.67;7.07;;;9.30;99.90;;;;;;6312224;22;20417;-88
2022/11/10 02:35:39;;;;;;;21.60;7.07;;;8.20;99.90;;;;;;6312335;22;20538;-88
2022/11/10 02:38:05;;;;;;;17.92;6.82;;;9.80;99.90;;;;;;6313361;22;20019;-88
2022/11/10 02:40:49;;;;;;;21.03;7.23;;;8.90;99.90;;;;;;6339038;22;20015;-88
2022/11/10 02:43:24;;;;;;;27.07;7.37;;;8.60;99.90;;;;;;6311253;22;20019;-88
2022/11/10 02:45:50;;;;;;;20.25;7.32;;;8.30;99.90;;;;;;6313290;22;20342;-88
2022/11/10 02:48:16;;;;;;;23.58;7.50;;;10.00;99.90;;;;;;6311438;22;20011;-88
2022/11/10 02:50:53;;;;;;;24.85;8.02;;;9.30;99.90;;;;;;6312275;22;20019;-87
2022/11/10 02:53:25;;;;;;;25.80;8.18;;;8.10;99.90;;;;;;6312756;22;20362;-88
2022/11/10 02:55:50;;;;;;;20.33;7.45;;;8.30;99.90;;;;;;6312363;22;20018;-88
2022/11/10 02:58:19;;;;;;;21.85;7.68;;;8.50;99.90;;;;;;6312179;22;20064;-88
2022/11/10 03:00:48;;;;;;;28.25;8.65;;;9.50;99.90;;;;;;6312441;22;20014;-88
2022/11/10 03:03:19;;;;;;;28.40;8.60;;;9.70;99.90;;;;;;6311263;22;20022;-88
2022/11/10 03:18:05;;;;;;;30.13;10.57;;;9.30;99.90;;;;;;6339552;22;20017;-88
2022/11/10 03:23:47;;;;;;;26.87;10.17;;;8.40;99.90;;;;;;6339212;22;20352;-88
2022/11/10 03:26:21;;;;;;;28.67;10.73;;;10.40;99.90;;;;;;6312036;22;20454;-88
2022/11/10 03:29:07;;;;;;;;;;;8.30;99.90;;;;;;6312630;22;20014;-87
2022/11/10 03:34:39;;;;;;;29.27;11.13;;;8.10;99.90;;;;;;6282842;22;20025;-88
2022/11/10 03:37:11;;;;;;;26.70;10.77;;;8.70;99.90;;;;;;6309755;22;20057;-87
2022/11/10 03:39:40;;;;;;;31.40;11.10;;;8.80;99.90;;;;;;6312234;22;20076;-88
2022/11/10 03:42:12;;;;;;;28.40;10.33;;;8.50;99.90;;;;;;6312619;22;20015;-87
2022/11/10 03:44:55;;;;;;;25.92;10.70;;;8.20;99.90;;;;;;6311439;22;20326;-87
2022/11/10 03:47:24;;;;;;;30.27;11.07;;;8.10;99.90;;;;;;6311467;22;20060;-87
2022/11/10 03:49:50;;;;;;;28.65;10.35;;;9.30;99.90;;;;;;6339714;22;20018;-88
2022/11/10 03:52:36;;;;;;;25.33;10.50;;;8.80;99.90;;;;;;6311269;22;20331;-88
2022/11/10 03:55:02;;;;;;;28.37;10.93;;;8.20;99.90;;;;;;6311098;22;20038;-87
2022/11/10 03:57:31;;;;;;;26.90;10.57;;;8.70;99.90;;;;;;6338321;22;20011;-88
2022/11/10 03:59:57;;;;;;;28.85;10.90;;;8.40;99.90;;;;;;6339366;22;20474;-88
2022/11/10 04:02:25;;;;;;;27.80;10.47;;;8.00;99.90;;;;;;6311461;22;20034;-88
2022/11/10 04:16:52;;;;;;;27.93;12.60;;;8.40;99.90;;;;;;6307951;22;20016;-88
2022/11/10 04:19:32;;;;;;;35.70;12.97;;;8.20;99.90;;;;;;6305880;22;20015;-88
2022/11/10 04:21:58;;;;;;;32.70;12.47;;;8.70;99.90;;;;;;6308568;22;20091;-88
2022/11/10 04:24:27;;;;;;;30.60;12.80;;;8.20;99.90;;;;;;6308543;22;20015;-88
2022/11/10 04:26:56;;;;;;;35.80;12.90;;;8.60;99.90;;;;;;6305766;22;20020;-88
2022/11/10 04:29:58;;;;;;;36.55;13.52;;;8.20;99.90;;;;;;6307930;22;20019;-88
2022/11/10 04:32:23;;;;;;;35.03;13.07;;;8.60;99.90;;;;;;6307467;22;20023;-88
2022/11/10 04:34:51;;;;;;;39.20;14.40;;;8.40;99.90;;;;;;6309008;22;20019;-88
2022/11/10 04:37:25;;;;;;;35.07;14.40;;;9.50;99.90;;;;;;6307611;22;20022;-88
2022/11/10 04:39:51;;;;;;;38.63;13.83;;;8.60;99.90;;;;;;6305724;22;20072;-88
2022/11/10 04:42:24;;;;;;;30.73;14.97;;;8.20;99.90;;;;;;6312568;22;20047;-88
2022/11/10 04:44:50;;;;;;;41.33;15.60;;;9.20;99.90;;;;;;6308525;22;20012;-88
2022/11/10 04:47:25;;;;;;;37.37;15.53;;;7.80;99.90;;;;;;6307380;22;20116;-87
2022/11/10 04:49:50;;;;;;;36.20;15.70;;;9.90;99.90;;;;;;6312532;22;20382;-89
2022/11/10 04:52:21;;;;;;;42.43;15.67;;;10.40;99.90;;;;;;6306443;22;20457;-88
2022/11/10 04:54:50;;;;;;;36.20;15.93;;;8.00;99.90;;;;;;6307548;22;20015;-88
2022/11/10 04:57:35;;;;;;;41.23;16.93;;;7.60;99.90;;;;;;6307643;22;20019;-88
2022/11/10 05:00:06;;;;;;;39.23;14.80;;;7.60;99.90;;;;;;6311352;22;20080;-87
2022/11/10 05:02:38;;;;;;;47.83;17.23;;;8.60;99.90;;;;;;6306480;22;20041;-87
2022/11/10 05:05:07;;;;;;;43.40;15.73;;;9.90;99.90;;;;;;6306078;22;20112;-88
2022/11/10 05:08:04;;;;;;;39.00;16.13;;;7.70;99.90;;;;;;6310680;22;20026;-88
2022/11/10 05:10:56;;;;;;;36.00;15.57;;;9.90;99.90;;;;;;6308186;22;20026;-88
2022/11/10 05:13:26;;;;;;;39.47;16.00;;;9.00;99.90;;;;;;6304271;22;20015;-88
2022/11/10 05:15:59;;;;;;;33.58;14.93;;;8.00;99.90;;;;;;6311280;22;20080;-88
2022/11/10 05:18:31;;;;;;;34.58;14.75;;;10.10;99.90;;;;;;6311899;22;20076;-88
2022/11/10 05:21:09;;;;;;;;;;;;;;;;;;;;;
2022/11/10 05:23:49;;;;;;;40.97;15.57;;;10.00;99.90;;;;;;6289927;22;20015;-88
2022/11/10 05:26:18;;;;;;;37.60;15.63;;;8.70;99.90;;;;;;6302141;22;20015;-88
2022/11/10 05:28:45;;;;;;;37.27;15.37;;;10.40;99.90;;;;;;6343955;22;20018;-88
2022/11/10 05:34:42;;;;;;;35.63;15.68;;;10.70;99.90;;;;;;6340257;22;20086;-88
2022/11/10 05:43:28;;;;;;;39.83;16.60;;;9.60;99.90;;;;;;6152459;23;20339;-88
2022/11/10 05:46:02;;;;;;;44.53;16.85;;;9.00;99.90;;;;;;6152840;23;20315;-88
2022/11/10 05:49:14;;;;;;;36.90;15.98;;;8.50;99.90;;;;;;6152272;23;20018;-88
2022/11/10 05:52:21;;;;;;;40.22;19.23;;;9.10;99.90;;;;;;6152959;23;20473;-88
2022/11/10 05:55:33;;;;;;;47.20;23.27;;;9.20;99.90;;;;;;6153557;23;20022;-88
2022/11/10 05:58:38;;;;;;;37.00;17.05;;;8.60;99.90;;;;;;6148721;23;20018;-87
2022/11/10 06:01:08;;;;;;;40.00;16.73;;;9.80;99.90;;;;;;6275022;22;20474;-88
2022/11/10 06:04:11;;;;;;;41.60;15.25;;;9.50;99.90;;;;;;6305952;22;20351;-88
2022/11/10 06:06:40;;;;;;;38.72;15.02;;;8.50;99.90;;;;;;6306139;22;20019;-88
2022/11/10 06:09:09;;;;;;;41.33;15.23;;;9.00;99.90;;;;;;6305444;22;20016;-88
2022/11/10 06:12:07;;;;;;;;;;;;;;;;;;;;;
2022/11/10 06:14:40;;;;;;;38.78;14.45;;;9.20;99.90;;;;;;6302501;22;20653;-88
2022/11/10 06:21:13;;;;;;;34.90;14.80;;;8.20;99.90;;;;;;6318031;22;20110;-88
2022/11/10 06:32:10;;;;;;;37.92;14.23;;;9.10;99.90;;;;;;6329510;22;20027;-88
2022/11/10 06:34:49;;;;;;;31.23;12.45;;;8.70;99.90;;;;;;6326310;22;20504;-88
2022/11/10 06:37:33;;;;;;;;;;;;;;;;;;;;;
2022/11/10 06:40:27;;;;;;;34.17;13.20;;;9.30;99.90;;;;;;6338777;22;20019;-88
2022/11/10 06:42:59;;;;;;;33.27;12.50;;;10.70;99.90;;;;;;6339051;22;20015;-88
2022/11/10 06:45:28;;;;;;;33.07;13.30;;;8.80;99.90;;;;;;6243921;23;20096;-88
2022/11/10 06:49:01;;;;;;;31.87;13.10;;;9.10;99.90;;;;;;6218961;23;20074;-88
2022/11/10 06:51:31;;;;;;;31.43;13.73;;;8.60;99.90;;;;;;6222989;23;20027;-88
2022/11/10 09:09:52;;;;;;;27.23;8.68;;;10.70;99.90;;;;;;6301804;22;20026;-89
2022/11/10 09:12:26;;;;;;;22.40;7.70;;;10.80;99.90;;;;;;6310037;22;20015;-90
2022/11/10 10:40:36;;;;;;;;;;;;;;;;;;;;;
2022/11/10 10:43:36;;;;;;;22.13;4.53;;;12.80;99.90;;;;;;6240745;22;20099;-89
2022/11/10 10:57:59;;;;;;;;;;;;;;;;;;;;;
2022/11/10 11:04:39;;;;;;;15.75;4.10;;;13.30;99.90;;;;;;6276989;22;20385;-87
2022/11/10 11:30:07;;;;;;;15.15;4.63;;;12.50;99.90;;;;;;6346529;22;20113;-89
2022/11/10 11:33:07;;;;;;;15.25;4.88;;;13.30;99.90;;;;;;6312190;22;20038;-89
2022/11/10 11:36:36;;;;;;;;;;;;;;;;;;;;;
2022/11/10 11:39:44;;;;;;;16.42;5.30;;;13.40;99.90;;;;;;6156028;23;20338;-84
2022/11/10 11:42:57;;;;;;;16.90;5.07;;;15.00;99.90;;;;;;6212115;23;20078;-85
2022/11/10 11:45:47;;;;;;;15.70;5.30;;;13.40;99.90;;;;;;6311002;22;20014;-86
2022/11/10 11:48:38;;;;;;;16.83;4.72;;;13.50;99.90;;;;;;6310874;22;20045;-86
2022/11/10 11:51:12;;;;;;;18.92;5.80;;;13.60;99.90;;;;;;6311565;22;20015;-86
2022/11/10 11:54:25;;;;;;;17.58;5.32;;;13.50;99.90;;;;;;6311660;22;20069;-86
2022/11/10 12:04:42;;;;;;;19.77;5.05;;;13.50;99.90;;;;;;6338028;22;20026;-86
2022/11/10 12:10:18;;;;;;;17.70;4.20;;;13.60;99.90;;;;;;6337693;22;20027;-86
2022/11/10 12:13:21;;;;;;;20.77;4.90;;;13.50;99.90;;;;;;6339926;22;20097;-86
2022/11/10 12:16:27;;;;;;;19.63;5.07;;;13.80;99.90;;;;;;6311168;22;20094;-85
2022/11/10 12:19:25;;;;;;;16.33;4.25;;;13.00;99.90;;;;;;6310195;22;20324;-84
2022/11/10 12:22:11;;;;;;;17.50;3.97;;;13.40;99.90;;;;;;6310978;22;20011;-85
2022/11/10 12:25:11;;;;;;;16.83;4.45;;;13.50;99.90;;;;;;6309917;22;20021;-85
2022/11/10 12:28:30;;;;;;;16.42;3.65;;;13.90;99.90;;;;;;6313063;22;20098;-85
2022/11/10 12:31:02;;;;;;;14.32;3.47;;;14.10;99.90;;;;;;6309902;22;20334;-85
2022/11/10 12:36:03;;;;;;;14.25;3.25;;;14.20;99.90;;;;;;6341349;22;20459;-86
2022/11/10 12:39:05;;;;;;;15.15;3.53;;;15.60;99.90;;;;;;6340343;22;20023;-86
2022/11/10 12:42:23;;;;;;;13.02;3.10;;;14.30;99.90;;;;;;6311315;22;20029;-88
2022/11/10 12:45:53;;;;;;;11.90;3.35;;;14.10;99.90;;;;;;6209200;23;20048;-84
2022/11/10 12:49:00;;;;;;;18.20;3.60;;;14.10;99.90;;;;;;6188735;23;20478;-84
2022/11/10 12:51:52;;;;;;;16.73;4.15;;;14.20;99.90;;;;;;6187823;23;20025;-84
2022/11/10 13:01:31;;;;;;;15.48;3.85;;;14.10;99.90;;;;;;6208766;23;20023;-84
2022/11/10 13:04:13;;;;;;;16.45;3.83;;;14.80;99.90;;;;;;6187720;23;20112;-84
2022/11/10 13:07:06;;;;;;;15.13;3.35;;;15.40;99.90;;;;;;6186975;23;20075;-85
2022/11/10 13:09:50;;;;;;;14.88;3.08;;;14.30;99.90;;;;;;6187014;23;20167;-85
2022/11/10 13:12:33;;;;;;;15.93;3.28;;;15.70;99.90;;;;;;6246251;22;20465;-84
2022/11/10 13:15:34;;;;;;;15.40;3.53;;;14.20;99.90;;;;;;6309818;22;20098;-85
2022/11/10 13:18:00;;;;;;;21.75;3.15;;;14.80;99.90;;;;;;6338463;22;20060;-84
2022/11/10 13:21:14;;;;;;;13.85;3.83;;;15.80;99.90;;;;;;6305971;22;20023;-84
2022/11/10 13:23:43;;;;;;;16.50;4.00;;;14.30;99.90;;;;;;6305505;22;20019;-85
2022/11/10 13:27:15;;;;;;;14.45;3.20;;;14.40;99.90;;;;;;6310357;22;20036;-84
2022/11/10 13:30:32;;;;;;;14.82;3.88;;;14.30;99.90;;;;;;6310538;22;20018;-85
2022/11/10 13:34:05;;;;;;;16.08;3.35;;;13.60;99.90;;;;;;6310092;22;20015;-86
2022/11/10 13:40:34;;;;;;;16.38;3.40;;;14.40;99.90;;;;;;6299080;22;20069;-85
2022/11/10 13:43:18;;;;;;;17.80;3.83;;;14.40;99.90;;;;;;6300951;22;20019;-85
2022/11/10 13:46:00;;;;;;;16.80;3.92;;;15.60;99.90;;;;;;6305390;22;20513;-85
2022/11/10 13:48:55;;;;;;;16.52;3.88;;;14.10;99.90;;;;;;6306328;22;20015;-85
2022/11/10 13:51:43;;;;;;;16.33;3.53;;;14.00;99.90;;;;;;6278711;22;20019;-85
2022/11/10 13:54:53;;;;;;;16.10;3.58;;;14.00;99.90;;;;;;6309302;22;20026;-85
2022/11/10 13:57:36;;;;;;;18.83;3.83;;;14.00;99.90;;;;;;6274258;22;20486;-85
2022/11/10 14:00:15;;;;;;;16.85;4.53;;;15.50;99.90;;;;;;6250957;22;20069;-84
2022/11/10 14:03:01;;;;;;;21.17;3.70;;;13.50;99.90;;;;;;6250253;22;20020;-85
2022/11/10 14:06:10;;;;;;;14.32;3.58;;;13.80;99.90;;;;;;6251012;22;20011;-84
2022/11/10 14:09:32;;;;;;;14.40;3.92;;;13.50;99.90;;;;;;6247199;22;20011;-84
2022/11/10 14:12:46;;;;;;;16.08;3.97;;;14.20;99.90;;;;;;6251185;22;20015;-85
2022/11/10 14:15:53;;;;;;;18.02;4.00;;;13.60;99.90;;;;;;6212606;22;20015;-85
2022/11/10 14:18:40;;;;;;;15.57;4.22;;;13.80;99.90;;;;;;6213480;22;20069;-85
2022/11/10 14:21:45;;;;;;;16.67;4.45;;;14.70;99.90;;;;;;6291359;22;20011;-85
2022/11/10 14:24:55;;;;;;;22.30;4.53;;;13.50;99.90;;;;;;6278753;22;20007;-84
2022/11/10 14:27:30;;;;;;;17.27;4.18;;;13.00;99.90;;;;;;6256443;22;20027;-85
2022/11/10 14:33:14;;;;;;;15.60;4.00;;;13.50;99.90;;;;;;6251520;22;20098;-84
2022/11/10 14:36:19;;;;;;;17.45;5.20;;;14.90;99.90;;;;;;6278212;22;20016;-84
2022/11/10 14:39:32;;;;;;;14.13;4.10;;;13.50;99.90;;;;;;6250818;22;20339;-85
2022/11/10 14:42:04;;;;;;;15.00;4.25;;;13.10;99.90;;;;;;6276976;22;20019;-84
2022/11/10 14:44:36;;;;;;;17.00;3.85;;;14.10;99.90;;;;;;6250238;22;20015;-85
2022/11/10 14:47:38;;;;;;;13.77;3.80;;;13.40;99.90;;;;;;6250385;22;20015;-85
2022/11/10 14:53:51;;;;;;;15.57;3.40;;;13.40;99.90;;;;;;6201821;22;20475;-85
2022/11/10 14:56:27;;;;;;;13.90;3.72;;;13.40;99.90;;;;;;6254169;22;20401;-85
2022/11/10 15:00:01;;;;;;;13.73;3.30;;;14.20;99.90;;;;;;6308005;22;20051;-85
2022/11/10 15:06:56;;;;;;;17.98;3.55;;;13.40;99.90;;;;;;6278657;22;20094;-85
2022/11/10 15:09:28;;;;;;;18.13;3.55;;;13.40;99.90;;;;;;6308098;22;20025;-85
2022/11/10 15:12:19;;;;;;;14.52;3.67;;;14.10;99.90;;;;;;6281244;22;20019;-85
2022/11/10 15:15:13;;;;;;;17.88;3.45;;;13.40;99.90;;;;;;6280588;22;20047;-85
2022/11/10 15:17:50;;;;;;;13.35;3.20;;;13.40;99.90;;;;;;6282015;22;20069;-85
2022/11/10 15:20:26;;;;;;;17.92;5.75;;;13.40;99.90;;;;;;6279886;22;20090;-85
2022/11/10 15:23:37;;;;;;;15.13;3.10;;;13.30;99.90;;;;;;6280979;22;20023;-85
2022/11/10 15:26:15;;;;;;;14.73;3.97;;;13.30;99.90;;;;;;6242680;22;20064;-85
2022/11/10 15:28:45;;;;;;;36.17;18.77;;;13.30;99.90;;;;;;6280078;22;20090;-85
2022/11/10 15:31:46;;;;;;;14.55;4.80;;;14.60;99.90;;;;;;6308280;22;20019;-84
2022/11/10 15:34:36;;;;;;;19.27;4.70;;;12.50;99.90;;;;;;6269300;22;20331;-85
2022/11/10 15:37:42;;;;;;;28.48;14.20;;;13.20;99.90;;;;;;6281456;22;20054;-85
2022/11/10 15:40:48;;;;;;;14.55;4.10;;;12.60;99.90;;;;;;6280999;22;20026;-85
2022/11/10 15:43:27;;;;;;;12.40;3.10;;;13.30;99.90;;;;;;6281103;22;20023;-85
2022/11/10 15:46:31;;;;;;;14.45;3.67;;;14.70;99.90;;;;;;6309104;22;20124;-85
2022/11/10 15:49:24;;;;;;;14.80;4.05;;;12.90;99.90;;;;;;6279392;22;20015;-85
2022/11/10 15:52:28;;;;;;;11.90;3.25;;;13.30;99.90;;;;;;6307020;22;20431;-85
2022/11/10 15:55:41;;;;;;;13.00;3.70;;;13.30;99.90;;;;;;6280153;22;20084;-84
2022/11/10 15:58:37;;;;;;;16.60;3.67;;;12.30;99.90;;;;;;6155141;23;20033;-86
2022/11/10 16:01:16;;;;;;;15.15;3.45;;;13.30;99.90;;;;;;6129277;23;20080;-86
2022/11/10 16:07:13;;;;;;;14.20;3.55;;;13.20;99.90;;;;;;6249782;22;20024;-85
2022/11/10 16:10:22;;;;;;;14.95;3.67;;;14.80;99.90;;;;;;6249838;22;20027;-86
2022/11/10 16:25:37;;;;;;;16.52;3.38;;;12.60;99.90;;;;;;6272717;22;20501;-85
2022/11/10 16:28:06;;;;;;;14.27;2.80;;;13.20;99.90;;;;;;6248768;22;20501;-86
2022/11/10 16:30:49;;;;;;;13.95;3.00;;;13.10;99.90;;;;;;6247103;22;20026;-86
2022/11/10 16:33:41;;;;;;;11.07;2.83;;;13.30;99.90;;;;;;6272689;22;20029;-86
2022/11/10 16:36:33;;;;;;;12.27;2.72;;;12.50;99.90;;;;;;6314299;22;20015;-86
2022/11/10 16:39:18;;;;;;;13.75;3.10;;;13.20;99.90;;;;;;6252123;22;20093;-86
2022/11/10 16:42:08;;;;;;;13.25;3.10;;;13.10;99.90;;;;;;6296820;22;20048;-86
2022/11/10 16:45:28;;;;;;;12.23;3.03;;;13.70;99.90;;;;;;6304313;22;20019;-86
2022/11/10 16:49:04;;;;;;;11.18;2.72;;;12.90;99.90;;;;;;6335774;22;20128;-87
2022/11/10 16:51:56;;;;;;;12.70;3.00;;;13.10;99.90;;;;;;6306789;22;20018;-87
2022/11/10 16:54:25;;;;;;;11.48;2.97;;;12.20;99.90;;;;;;6308543;22;20385;-87
2022/11/10 17:02:48;;;;;;;11.80;2.60;;;13.10;99.90;;;;;;6365526;22;20026;-87
2022/11/10 17:05:28;;;;;;;10.30;2.53;;;12.40;99.90;;;;;;6369692;22;20015;-86
2022/11/10 17:11:08;;;;;;;8.27;2.67;;;12.70;99.90;;;;;;6341862;22;20022;-86
2022/11/10 17:13:44;;;;;;;13.25;2.65;;;12.70;99.90;;;;;;6368502;22;20028;-86
2022/11/10 17:20:18;;;;;;;12.68;2.60;;;13.00;99.90;;;;;;6340084;22;20007;-87
2022/11/10 17:22:50;;;;;;;11.15;2.63;;;12.90;99.90;;;;;;6322653;22;20415;-86
2022/11/10 17:25:37;;;;;;;11.37;2.50;;;13.70;99.90;;;;;;6377463;22;20468;-86
2022/11/10 17:28:03;;;;;;;13.63;2.80;;;12.30;99.90;;;;;;6372071;22;20089;-86
2022/11/10 17:30:42;;;;;;;12.88;2.45;;;12.80;99.90;;;;;;6342211;22;20057;-86
2022/11/10 17:33:22;;;;;;;16.60;2.70;;;12.00;99.90;;;;;;6345339;22;20386;-86
2022/11/10 17:35:59;;;;;;;12.13;2.50;;;13.20;99.90;;;;;;6370761;22;20029;-87
2022/11/10 17:38:30;;;;;;;11.10;2.38;;;12.70;99.90;;;;;;6342475;22;20017;-86
2022/11/10 17:40:58;;;;;;;12.82;2.30;;;12.60;99.90;;;;;;6341511;22;20030;-86
2022/11/10 17:43:31;;;;;;;12.95;2.95;;;12.60;99.90;;;;;;6369413;22;20397;-86
2022/11/10 17:46:18;;;;;;;29.67;14.57;;;12.40;99.90;;;;;;6370280;22;20021;-86
2022/11/10 17:48:59;;;;;;;11.88;3.30;;;13.90;99.90;;;;;;6369373;22;20011;-86
2022/11/10 17:51:24;;;;;;;35.55;15.55;;;13.30;99.90;;;;;;6341729;22;20053;-86
2022/11/10 17:54:03;;;;;;;13.02;3.42;;;13.50;99.90;;;;;;6342262;22;20010;-86
2022/11/10 17:56:48;;;;;;;12.77;3.03;;;12.40;99.90;;;;;;6369061;22;20021;-86
2022/11/10 17:59:20;;;;;;;67.18;35.38;;;12.30;99.90;;;;;;6369652;22;20094;-86
2022/11/10 18:01:46;;;;;;;14.07;4.65;;;12.80;99.90;;;;;;6371068;22;20033;-86
2022/11/10 18:05:02;;;;;;;11.68;2.90;;;13.40;99.90;;;;;;6371192;22;20022;-85
2022/11/10 18:08:17;;;;;;;10.32;2.65;;;12.10;99.90;;;;;;6369167;22;20075;-86
2022/11/10 18:13:23;;;;;;;12.82;3.90;;;12.10;99.90;;;;;;6367749;22;20018;-86
2022/11/10 18:15:53;;;;;;;15.50;3.35;;;12.20;99.90;;;;;;6369082;22;20319;-86
2022/11/10 18:18:37;;;;;;;11.65;2.70;;;12.50;99.90;;;;;;6360777;22;20051;-86
2022/11/10 18:21:18;;;;;;;10.23;3.28;;;12.20;99.90;;;;;;6369994;22;20022;-86
2022/11/10 18:23:47;;;;;;;11.25;3.22;;;12.20;99.90;;;;;;6369172;22;20014;-86
2022/11/10 18:26:24;;;;;;;16.58;6.80;;;13.10;99.90;;;;;;6368315;22;20014;-86
2022/11/10 18:28:58;;;;;;;14.57;3.47;;;12.20;99.90;;;;;;6368875;22;20018;-87
2022/11/10 18:35:26;;;;;;;13.60;4.15;;;12.10;99.90;;;;;;6367094;22;20140;-86
2022/11/10 18:38:05;;;;;;;12.25;2.60;;;11.00;99.90;;;;;;6340813;22;20025;-87
2022/11/10 18:51:37;;;;;;;;;;;;;;;;;;;;;
2022/11/10 18:54:34;;;;;;;;;;;;;;;;;;;;;
2022/11/10 18:57:27;;;;;;;9.50;2.80;;;11.80;99.90;;;;;;6230417;22;20016;-86
2022/11/10 19:00:18;;;;;;;10.25;3.05;;;12.60;99.90;;;;;;6251890;22;20097;-83
2022/11/10 19:03:03;;;;;;;13.68;3.50;;;13.30;99.90;;;;;;6238691;22;20016;-86
2022/11/10 19:05:38;;;;;;;12.32;3.58;;;11.70;99.90;;;;;;6249230;22;20333;-87
2022/11/10 19:08:38;;;;;;;12.35;3.67;;;11.80;99.90;;;;;;6235276;22;20015;-86
2022/11/10 19:11:08;;;;;;;15.52;5.00;;;12.40;99.90;;;;;;6250775;22;20453;-86
2022/11/10 19:16:49;;;;;;;11.05;2.78;;;11.50;99.90;;;;;;6236879;22;20451;-86
2022/11/10 19:19:24;;;;;;;12.77;2.85;;;12.00;99.90;;;;;;6276650;22;20008;-86
2022/11/10 19:22:19;;;;;;;11.38;3.00;;;11.30;99.90;;;;;;6277746;22;20016;-86
2022/11/10 19:27:37;;;;;;;9.80;2.53;;;11.30;99.90;;;;;;6272106;22;20442;-86
2022/11/10 19:40:38;;;;;;;13.60;2.95;;;11.30;99.90;;;;;;6297095;22;20019;-86
2022/11/10 19:43:21;;;;;;;16.05;7.18;;;11.30;99.90;;;;;;6339916;22;20015;-86
2022/11/10 19:45:51;;;;;;;23.92;10.20;;;11.80;99.90;;;;;;6337814;22;20010;-86
2022/11/10 19:48:19;;;;;;;12.73;3.30;;;10.90;99.90;;;;;;6310449;22;20019;-86
2022/11/10 19:51:21;;;;;;;13.07;3.45;;;12.60;99.90;;;;;;6339181;22;20414;-86
2022/11/10 19:54:03;;;;;;;;;;;;;;;;;;;;;
2022/11/10 19:57:16;;;;;;;12.68;3.13;;;12.10;99.90;;;;;;6274215;22;20358;-86
2022/11/10 19:59:48;;;;;;;13.98;3.50;;;11.20;99.90;;;;;;6343151;22;20077;-86
2022/11/10 20:03:10;;;;;;;10.88;3.00;;;11.50;99.90;;;;;;6369749;22;20106;-86
2022/11/10 20:05:38;;;;;;;10.50;3.10;;;12.00;99.90;;;;;;6370688;22;20019;-86
2022/11/10 20:08:55;;;;;;;10.52;3.33;;;10.10;99.90;;;;;;6338243;22;20374;-86
2022/11/10 20:12:26;;;;;;;11.50;3.35;;;11.20;99.90;;;;;;6370096;22;20015;-86
2022/11/10 20:15:20;;;;;;;12.88;3.00;;;11.30;99.90;;;;;;6394498;22;20045;-86
2022/11/10 20:17:52;;;;;;;9.10;2.90;;;10.90;99.90;;;;;;6346005;22;20067;-86
2022/11/10 20:20:24;;;;;;;13.25;2.92;;;11.90;99.90;;;;;;6372362;22;20062;-86
2022/11/10 20:22:52;;;;;;;16.38;3.53;;;11.80;99.90;;;;;;6369657;22;20085;-86
2022/11/10 20:25:24;;;;;;;11.25;3.40;;;10.40;99.90;;;;;;6342502;22;20445;-86
2022/11/10 20:28:05;;;;;;;9.98;3.40;;;12.00;99.90;;;;;;6345405;22;20091;-85
2022/11/10 20:30:33;;;;;;;11.32;3.42;;;10.90;99.90;;;;;;6355414;22;20018;-86
2022/11/10 20:33:20;;;;;;;12.60;3.50;;;10.80;99.90;;;;;;6344184;22;20022;-86
2022/11/10 20:36:13;;;;;;;11.10;3.07;;;10.80;99.90;;;;;;6346482;22;20093;-85
2022/11/10 20:42:20;;;;;;;11.50;3.27;;;10.60;99.90;;;;;;6371516;22;20021;-85
2022/11/10 20:45:15;;;;;;;11.55;3.20;;;11.90;99.90;;;;;;6375880;22;20038;-86
2022/11/10 20:47:40;;;;;;;12.80;3.33;;;10.70;99.90;;;;;;6343788;22;20018;-86
2022/11/10 20:53:18;;;;;;;15.85;3.78;;;10.70;99.90;;;;;;6318231;22;20324;-86
2022/11/10 20:56:11;;;;;;;13.68;3.50;;;10.70;99.90;;;;;;6313184;22;20015;-86
2022/11/10 20:58:42;;;;;;;12.23;3.20;;;11.60;99.90;;;;;;6128841;23;20018;-86
2022/11/10 21:04:35;;;;;;;14.20;3.42;;;10.60;99.90;;;;;;6338424;22;20015;-86
2022/11/10 21:07:23;;;;;;;14.52;3.40;;;10.50;99.90;;;;;;6257639;22;20400;-86
2022/11/10 21:10:14;;;;;;;10.50;3.28;;;10.30;99.90;;;;;;6338517;22;20018;-86
2022/11/10 21:16:29;;;;;;;10.45;3.10;;;10.60;99.90;;;;;;6339593;22;20013;-86
2022/11/10 21:19:00;;;;;;;9.77;3.35;;;10.50;99.90;;;;;;6339020;22;20006;-86